Terminal Aerodrome Forecast
Issued by NWS Wilmington, OH

Current Version | Previous Version | Graphics & Text | Print | Product List | Glossary On
Versions: 1 2 3 4 5 6 7 8 9 10 11 12 13 14 15 16 17 18 19 20 21
000
FTUS41 KILN 210800 AAA
TAFCMH
TAF AMD
KCMH 210808Z 2108/2206 10003KT P6SM SCT045
      TEMPO 2108/2110 3SM BR
     FM211000 VRB03KT 3SM BR BKN250
      TEMPO 2110/2113 2SM BR
     FM211300 VRB03KT P6SM SCT025 BKN250
     FM211600 09006KT P6SM SCT035
     FM220100 VRB03KT P6SM SKC=

USA.gov is the U.S. government's official web portal to all federal, state and local government web resources and services.